VVPB/HUI METAR and TAF weather

Enter ICAO airport designator
Station Type Date Time Source
VVPB METAR 2021/09/20 05:30 UTC NOAA

VVPB 200530Z 06008KT 9999 SCT017 31/25 Q1009 NOSIG


Station Type Date Time Source
VVPB Decoded METAR 2021/09/20 05:30 UTC NOAA

Hue, Vietnam (VVPB) 16-24N 107-41E 17M
Sep 20, 2021 - 01:30 AM EDT / 2021.09.20 0530 UTC
Wind: from the ENE (060 degrees) at 9 MPH (8 KT):0
Visibility: greater than 7 mile(s):0
Sky conditions: partly cloudy
Temperature: 87 F (31 C)
Heat index: 97.5 F (36.4 C):1
Dew Point: 77 F (25 C)
Relative Humidity: 70%
Pressure (altimeter): 29.80 in. Hg (1009 hPa)
ob: VVPB 200530Z 06008KT 9999 SCT017 31/25 Q1009 NOSIG
cycle: 5

Station Type Date Time Source
VVPB TAF 2021/09/20 06:00 UTC NOAA

TAF VVPB 200500Z 2006/2106 06010KT 9999 FEW015 SCT060
TEMPO 2006/2012 4500 TSRA SCT010 FEW015CB BKN050
TEMPO 2021/2101 5000 SHRA SCT010 FEW015CB SCT050

Example: see airport list